This is the latest recevied weather packets stored in our database for station/object N6DZK. If no packets are shown the sender has not sent any weather packets the latest 10 day(s).
| Time | Temp. | Humidity | Pressure | Rain* | Wind** | Luminosity | Snow |
|---|---|---|---|---|---|---|---|
| 1777308249 | 14.44° C | 70% | 1017.5 hPa | 0 mm | - | 266 W/m² | - |
| 1777307944 | 14.44° C | 68% | 1017.4 hPa | 0 mm | - | 334 W/m² | - |
| 1777307642 | 13.89° C | 70% | 1017.6 hPa | 0 mm | - | 383 W/m² | - |
| 1777307339 | 13.89° C | 72% | 1017.4 hPa | 0 mm | - | 399 W/m² | - |
| 1777307036 | 13.33° C | 72% | 1017.4 hPa | 0 mm | - | 333 W/m² | - |
| 1777306734 | 13.89° C | 69% | 1017.4 hPa | 0 mm | - | 322 W/m² | - |
| 1777306431 | 13.89° C | 70% | 1017.5 hPa | 0 mm | - | 308 W/m² | - |
| 1777306131 | 13.89° C | 69% | 1017.3 hPa | 0 mm | - | 293 W/m² | - |
| 1777305827 | 13.33° C | 73% | 1017.4 hPa | 0 mm | - | 306 W/m² | - |
| 1777305523 | 12.78° C | 74% | 1017.4 hPa | 0 mm | - | 312 W/m² | - |
| 1777305219 | 12.22° C | 75% | 1017.6 hPa | 0 mm | - | 269 W/m² | - |
| 1777304913 | 12.78° C | 74% | 1017.2 hPa | 0 mm | - | 241 W/m² | - |
| 1777304611 | 12.22° C | 74% | 1017.3 hPa | 0 mm | - | 213 W/m² | - |
| 1777304307 | 12.78° C | 74% | 1017.3 hPa | 0 mm | - | 194 W/m² | - |
| 1777304005 | 12.78° C | 74% | 1017.5 hPa | 0 mm | - | 175 W/m² | - |
| 1777303701 | 13.33° C | 70% | 1017.3 hPa | 0 mm | - | 204 W/m² | - |
| 1777303398 | 14.44° C | 66% | 1017.4 hPa | 0 mm | - | 223 W/m² | - |
| 1777303096 | 15° C | 66% | 1017.3 hPa | 0 mm | - | 322 W/m² | - |
| 1777302794 | 14.44° C | 68% | 1017.2 hPa | 0 mm | - | 276 W/m² | - |
| 1777302491 | 13.89° C | 69% | 1017.2 hPa | 0 mm | - | 217 W/m² | - |
| 1777302189 | 13.33° C | 72% | 1017.3 hPa | 0 mm | - | 189 W/m² | - |
| 1777301886 | 12.22° C | 77% | 1017.4 hPa | 0 mm | - | 171 W/m² | - |
| 1777301583 | 11.67° C | 76% | 1017.4 hPa | 0 mm | - | 88 W/m² | - |
| 1777301281 | 12.22° C | 73% | 1017.2 hPa | 0 mm | - | 96 W/m² | - |
| 1777300977 | 12.22° C | 74% | 1017.1 hPa | 0 mm | - | 102 W/m² | - |
* Rain latest hour (hover to see other rain measurements)
** Current wind speed in m/s (hover to see current wind gust speed)